sensor_id;sensor_type;location;lat;lon;timestamp;P1;durP1;ratioP1;P2;durP2;ratioP2
61358;SDS011;47228;46.762;23.598;2022-07-01T00:01:48;13.40;;;9.40;;
61358;SDS011;47228;46.762;23.598;2022-07-01T00:04:17;12.50;;;9.00;;
61358;SDS011;47228;46.762;23.598;2022-07-01T00:06:45;10.90;;;8.80;;
61358;SDS011;47228;46.762;23.598;2022-07-01T00:09:13;14.00;;;9.50;;
61358;SDS011;47228;46.762;23.598;2022-07-01T00:11:42;11.20;;;9.00;;
61358;SDS011;47228;46.762;23.598;2022-07-01T00:14:10;15.40;;;9.70;;
61358;SDS011;47228;46.762;23.598;2022-07-01T00:16:38;15.00;;;9.70;;
61358;SDS011;47228;46.762;23.598;2022-07-01T00:19:07;14.40;;;9.80;;
61358;SDS011;47228;46.762;23.598;2022-07-01T00:21:35;13.30;;;10.00;;
61358;SDS011;47228;46.762;23.598;2022-07-01T00:24:04;13.80;;;9.90;;
61358;SDS011;47228;46.762;23.598;2022-07-01T00:26:32;14.20;;;10.40;;
61358;SDS011;47228;46.762;23.598;2022-07-01T00:29:00;14.40;;;10.00;;
61358;SDS011;47228;46.762;23.598;2022-07-01T00:31:29;14.60;;;11.30;;
61358;SDS011;47228;46.762;23.598;2022-07-01T00:33:57;14.80;;;10.50;;
61358;SDS011;47228;46.762;23.598;2022-07-01T00:36:25;17.60;;;10.60;;
61358;SDS011;47228;46.762;23.598;2022-07-01T00:38:58;15.50;;;10.00;;
61358;SDS011;47228;46.762;23.598;2022-07-01T00:41:27;12.70;;;9.80;;
61358;SDS011;47228;46.762;23.598;2022-07-01T00:43:55;12.50;;;10.30;;
61358;SDS011;47228;46.762;23.598;2022-07-01T00:46:25;16.00;;;10.00;;
61358;SDS011;47228;46.762;23.598;2022-07-01T00:48:54;14.60;;;10.10;;
61358;SDS011;47228;46.762;23.598;2022-07-01T00:51:24;13.40;;;10.40;;
61358;SDS011;47228;46.762;23.598;2022-07-01T00:53:52;15.80;;;10.30;;
61358;SDS011;47228;46.762;23.598;2022-07-01T00:56:21;14.50;;;9.70;;
61358;SDS011;47228;46.762;23.598;2022-07-01T00:58:50;14.10;;;9.90;;
61358;SDS011;47228;46.762;23.598;2022-07-01T01:01:18;15.30;;;9.20;;
61358;SDS011;47228;46.762;23.598;2022-07-01T01:03:47;13.20;;;9.40;;
61358;SDS011;47228;46.762;23.598;2022-07-01T01:06:17;12.90;;;9.70;;
61358;SDS011;47228;46.762;23.598;2022-07-01T01:08:45;14.00;;;10.00;;
61358;SDS011;47228;46.762;23.598;2022-07-01T01:11:14;12.50;;;9.70;;
61358;SDS011;47228;46.762;23.598;2022-07-01T01:13:43;14.50;;;9.40;;
61358;SDS011;47228;46.762;23.598;2022-07-01T01:16:18;14.70;;;9.50;;
61358;SDS011;47228;46.762;23.598;2022-07-01T01:18:48;16.30;;;10.00;;
61358;SDS011;47228;46.762;23.598;2022-07-01T01:21:16;13.30;;;9.50;;
61358;SDS011;47228;46.762;23.598;2022-07-01T01:23:46;15.20;;;9.60;;
61358;SDS011;47228;46.762;23.598;2022-07-01T01:26:18;14.00;;;9.90;;
61358;SDS011;47228;46.762;23.598;2022-07-01T01:28:49;13.70;;;9.40;;
61358;SDS011;47228;46.762;23.598;2022-07-01T01:31:18;13.70;;;10.10;;
61358;SDS011;47228;46.762;23.598;2022-07-01T01:33:58;15.10;;;10.30;;
61358;SDS011;47228;46.762;23.598;2022-07-01T01:36:28;14.40;;;9.70;;
61358;SDS011;47228;46.762;23.598;2022-07-01T01:38:56;12.70;;;9.90;;
61358;SDS011;47228;46.762;23.598;2022-07-01T01:41:31;16.10;;;10.30;;
61358;SDS011;47228;46.762;23.598;2022-07-01T01:43:59;15.30;;;10.00;;
61358;SDS011;47228;46.762;23.598;2022-07-01T01:46:27;15.70;;;10.80;;
61358;SDS011;47228;46.762;23.598;2022-07-01T01:48:57;13.50;;;9.70;;
61358;SDS011;47228;46.762;23.598;2022-07-01T01:51:25;12.50;;;9.70;;
61358;SDS011;47228;46.762;23.598;2022-07-01T01:53:55;16.00;;;9.80;;
61358;SDS011;47228;46.762;23.598;2022-07-01T01:56:23;12.10;;;9.90;;
61358;SDS011;47228;46.762;23.598;2022-07-01T01:58:52;11.70;;;9.80;;
61358;SDS011;47228;46.762;23.598;2022-07-01T02:01:20;13.50;;;10.40;;
61358;SDS011;47228;46.762;23.598;2022-07-01T02:03:49;15.70;;;10.30;;
61358;SDS011;47228;46.762;23.598;2022-07-01T02:06:19;15.90;;;10.20;;
61358;SDS011;47228;46.762;23.598;2022-07-01T02:08:48;15.50;;;9.80;;
61358;SDS011;47228;46.762;23.598;2022-07-01T02:11:16;14.70;;;9.90;;
61358;SDS011;47228;46.762;23.598;2022-07-01T02:13:45;15.90;;;10.60;;
61358;SDS011;47228;46.762;23.598;2022-07-01T02:16:13;13.40;;;10.50;;
61358;SDS011;47228;46.762;23.598;2022-07-01T02:18:41;15.90;;;10.50;;
61358;SDS011;47228;46.762;23.598;2022-07-01T02:21:09;14.10;;;9.50;;
61358;SDS011;47228;46.762;23.598;2022-07-01T02:23:38;13.30;;;10.00;;
61358;SDS011;47228;46.762;23.598;2022-07-01T02:26:06;15.00;;;10.20;;
61358;SDS011;47228;46.762;23.598;2022-07-01T02:28:34;16.90;;;10.30;;
61358;SDS011;47228;46.762;23.598;2022-07-01T02:31:02;13.90;;;9.80;;
61358;SDS011;47228;46.762;23.598;2022-07-01T02:33:31;14.30;;;10.60;;
61358;SDS011;47228;46.762;23.598;2022-07-01T02:35:59;18.20;;;9.70;;
61358;SDS011;47228;46.762;23.598;2022-07-01T02:38:27;12.80;;;10.20;;
61358;SDS011;47228;46.762;23.598;2022-07-01T02:40:55;14.10;;;9.60;;
61358;SDS011;47228;46.762;23.598;2022-07-01T02:43:23;12.30;;;9.50;;
61358;SDS011;47228;46.762;23.598;2022-07-01T02:45:51;15.00;;;9.80;;
61358;SDS011;47228;46.762;23.598;2022-07-01T02:48:19;17.50;;;11.10;;
61358;SDS011;47228;46.762;23.598;2022-07-01T02:50:48;20.40;;;11.30;;
61358;SDS011;47228;46.762;23.598;2022-07-01T02:53:16;15.70;;;10.20;;
61358;SDS011;47228;46.762;23.598;2022-07-01T02:55:44;14.20;;;10.30;;
61358;SDS011;47228;46.762;23.598;2022-07-01T02:58:13;15.30;;;10.20;;
61358;SDS011;47228;46.762;23.598;2022-07-01T03:00:41;20.90;;;10.90;;
61358;SDS011;47228;46.762;23.598;2022-07-01T03:03:09;15.80;;;10.30;;
61358;SDS011;47228;46.762;23.598;2022-07-01T03:05:37;13.60;;;10.40;;
61358;SDS011;47228;46.762;23.598;2022-07-01T03:08:05;19.00;;;11.20;;
61358;SDS011;47228;46.762;23.598;2022-07-01T03:10:33;14.60;;;10.90;;
61358;SDS011;47228;46.762;23.598;2022-07-01T03:13:01;14.70;;;11.00;;
61358;SDS011;47228;46.762;23.598;2022-07-01T03:15:29;14.00;;;10.90;;
61358;SDS011;47228;46.762;23.598;2022-07-01T03:17:57;17.40;;;11.20;;
61358;SDS011;47228;46.762;23.598;2022-07-01T03:20:26;14.20;;;10.80;;
61358;SDS011;47228;46.762;23.598;2022-07-01T03:22:54;21.80;;;11.00;;
61358;SDS011;47228;46.762;23.598;2022-07-01T03:25:22;14.40;;;10.90;;
61358;SDS011;47228;46.762;23.598;2022-07-01T03:27:50;15.50;;;10.40;;
61358;SDS011;47228;46.762;23.598;2022-07-01T03:30:18;15.50;;;10.90;;
61358;SDS011;47228;46.762;23.598;2022-07-01T03:32:46;16.40;;;11.20;;
61358;SDS011;47228;46.762;23.598;2022-07-01T03:35:15;16.00;;;10.90;;
61358;SDS011;47228;46.762;23.598;2022-07-01T03:38:02;19.00;;;10.40;;
61358;SDS011;47228;46.762;23.598;2022-07-01T03:40:31;26.40;;;11.40;;
61358;SDS011;47228;46.762;23.598;2022-07-01T03:43:00;17.60;;;10.90;;
61358;SDS011;47228;46.762;23.598;2022-07-01T03:45:29;18.60;;;11.00;;
61358;SDS011;47228;46.762;23.598;2022-07-01T03:47:57;21.00;;;11.00;;
61358;SDS011;47228;46.762;23.598;2022-07-01T03:50:26;14.70;;;11.20;;
61358;SDS011;47228;46.762;23.598;2022-07-01T03:52:54;19.90;;;11.80;;
61358;SDS011;47228;46.762;23.598;2022-07-01T03:55:41;20.20;;;11.40;;
61358;SDS011;47228;46.762;23.598;2022-07-01T03:58:09;18.30;;;11.40;;
61358;SDS011;47228;46.762;23.598;2022-07-01T04:00:38;20.60;;;12.50;;
61358;SDS011;47228;46.762;23.598;2022-07-01T04:03:07;20.20;;;11.60;;
61358;SDS011;47228;46.762;23.598;2022-07-01T04:05:36;18.80;;;12.90;;
61358;SDS011;47228;46.762;23.598;2022-07-01T04:08:05;18.80;;;11.30;;
61358;SDS011;47228;46.762;23.598;2022-07-01T04:10:35;22.30;;;12.20;;
61358;SDS011;47228;46.762;23.598;2022-07-01T04:13:04;16.80;;;12.10;;
61358;SDS011;47228;46.762;23.598;2022-07-01T04:15:53;15.80;;;11.00;;
61358;SDS011;47228;46.762;23.598;2022-07-01T04:18:21;16.70;;;11.80;;
61358;SDS011;47228;46.762;23.598;2022-07-01T04:20:50;19.30;;;11.70;;
61358;SDS011;47228;46.762;23.598;2022-07-01T04:23:36;19.10;;;11.90;;
61358;SDS011;47228;46.762;23.598;2022-07-01T04:26:04;19.30;;;12.30;;
61358;SDS011;47228;46.762;23.598;2022-07-01T04:28:53;17.60;;;11.30;;
61358;SDS011;47228;46.762;23.598;2022-07-01T04:31:22;17.60;;;11.50;;
61358;SDS011;47228;46.762;23.598;2022-07-01T04:33:50;16.50;;;11.60;;
61358;SDS011;47228;46.762;23.598;2022-07-01T04:36:18;16.60;;;11.10;;
61358;SDS011;47228;46.762;23.598;2022-07-01T04:38:46;17.60;;;11.30;;
61358;SDS011;47228;46.762;23.598;2022-07-01T04:41:14;20.10;;;11.60;;
61358;SDS011;47228;46.762;23.598;2022-07-01T04:44:02;17.30;;;11.50;;
61358;SDS011;47228;46.762;23.598;2022-07-01T04:46:30;16.40;;;11.60;;
61358;SDS011;47228;46.762;23.598;2022-07-01T04:48:59;19.20;;;11.50;;
61358;SDS011;47228;46.762;23.598;2022-07-01T04:51:27;16.40;;;11.20;;
61358;SDS011;47228;46.762;23.598;2022-07-01T04:53:56;16.80;;;10.90;;
61358;SDS011;47228;46.762;23.598;2022-07-01T04:56:24;18.80;;;11.40;;
61358;SDS011;47228;46.762;23.598;2022-07-01T04:58:55;20.60;;;11.30;;
61358;SDS011;47228;46.762;23.598;2022-07-01T05:01:23;16.10;;;10.80;;
61358;SDS011;47228;46.762;23.598;2022-07-01T05:03:52;17.60;;;11.50;;
61358;SDS011;47228;46.762;23.598;2022-07-01T05:06:20;20.50;;;11.10;;
61358;SDS011;47228;46.762;23.598;2022-07-01T05:08:48;14.80;;;11.30;;
61358;SDS011;47228;46.762;23.598;2022-07-01T05:11:16;24.20;;;11.30;;
61358;SDS011;47228;46.762;23.598;2022-07-01T05:13:44;17.00;;;11.60;;
61358;SDS011;47228;46.762;23.598;2022-07-01T05:16:12;16.80;;;11.20;;
61358;SDS011;47228;46.762;23.598;2022-07-01T05:18:41;23.50;;;11.20;;
61358;SDS011;47228;46.762;23.598;2022-07-01T05:21:27;18.90;;;11.50;;
61358;SDS011;47228;46.762;23.598;2022-07-01T05:24:14;20.30;;;11.30;;
61358;SDS011;47228;46.762;23.598;2022-07-01T05:26:42;18.40;;;10.30;;
61358;SDS011;47228;46.762;23.598;2022-07-01T05:29:10;18.60;;;11.30;;
61358;SDS011;47228;46.762;23.598;2022-07-01T05:31:39;17.80;;;11.40;;
61358;SDS011;47228;46.762;23.598;2022-07-01T05:34:07;16.90;;;11.90;;
61358;SDS011;47228;46.762;23.598;2022-07-01T05:36:35;18.50;;;10.40;;
61358;SDS011;47228;46.762;23.598;2022-07-01T05:39:03;18.30;;;11.00;;
61358;SDS011;47228;46.762;23.598;2022-07-01T05:41:32;19.40;;;10.80;;
61358;SDS011;47228;46.762;23.598;2022-07-01T05:44:02;15.80;;;11.30;;
61358;SDS011;47228;46.762;23.598;2022-07-01T05:46:30;15.50;;;11.30;;
61358;SDS011;47228;46.762;23.598;2022-07-01T05:48:58;17.90;;;12.20;;
61358;SDS011;47228;46.762;23.598;2022-07-01T05:51:26;18.80;;;11.70;;
61358;SDS011;47228;46.762;23.598;2022-07-01T05:53:55;14.70;;;11.10;;
61358;SDS011;47228;46.762;23.598;2022-07-01T05:56:24;15.30;;;11.20;;
61358;SDS011;47228;46.762;23.598;2022-07-01T05:58:53;16.00;;;11.20;;
61358;SDS011;47228;46.762;23.598;2022-07-01T06:01:22;15.90;;;10.50;;
61358;SDS011;47228;46.762;23.598;2022-07-01T06:03:50;15.40;;;10.80;;
61358;SDS011;47228;46.762;23.598;2022-07-01T06:06:18;13.40;;;11.00;;
61358;SDS011;47228;46.762;23.598;2022-07-01T06:08:47;16.00;;;10.70;;
61358;SDS011;47228;46.762;23.598;2022-07-01T06:11:15;16.90;;;11.30;;
61358;SDS011;47228;46.762;23.598;2022-07-01T06:13:43;20.40;;;10.70;;
61358;SDS011;47228;46.762;23.598;2022-07-01T06:16:11;14.90;;;10.10;;
61358;SDS011;47228;46.762;23.598;2022-07-01T06:18:40;16.90;;;11.10;;
61358;SDS011;47228;46.762;23.598;2022-07-01T06:21:08;12.40;;;10.70;;
61358;SDS011;47228;46.762;23.598;2022-07-01T06:23:36;17.50;;;10.70;;
61358;SDS011;47228;46.762;23.598;2022-07-01T06:26:05;18.00;;;11.50;;
61358;SDS011;47228;46.762;23.598;2022-07-01T06:28:33;16.40;;;10.60;;
61358;SDS011;47228;46.762;23.598;2022-07-01T06:31:03;19.00;;;11.30;;
61358;SDS011;47228;46.762;23.598;2022-07-01T06:33:31;14.70;;;11.00;;
61358;SDS011;47228;46.762;23.598;2022-07-01T06:36:00;20.00;;;12.00;;
61358;SDS011;47228;46.762;23.598;2022-07-01T06:38:28;16.10;;;11.00;;
61358;SDS011;47228;46.762;23.598;2022-07-01T06:40:57;14.60;;;11.50;;
61358;SDS011;47228;46.762;23.598;2022-07-01T06:43:44;15.10;;;11.10;;
61358;SDS011;47228;46.762;23.598;2022-07-01T06:46:12;13.80;;;10.70;;
61358;SDS011;47228;46.762;23.598;2022-07-01T06:48:40;16.60;;;10.60;;
61358;SDS011;47228;46.762;23.598;2022-07-01T06:51:09;15.10;;;11.40;;
61358;SDS011;47228;46.762;23.598;2022-07-01T06:53:37;19.10;;;11.70;;
61358;SDS011;47228;46.762;23.598;2022-07-01T06:56:05;18.10;;;11.90;;
61358;SDS011;47228;46.762;23.598;2022-07-01T06:58:33;16.00;;;10.90;;
61358;SDS011;47228;46.762;23.598;2022-07-01T07:01:02;16.10;;;11.80;;
61358;SDS011;47228;46.762;23.598;2022-07-01T07:03:30;16.40;;;11.00;;
61358;SDS011;47228;46.762;23.598;2022-07-01T07:06:00;17.70;;;11.40;;
61358;SDS011;47228;46.762;23.598;2022-07-01T07:08:30;19.00;;;11.60;;
61358;SDS011;47228;46.762;23.598;2022-07-01T07:11:00;24.70;;;11.30;;
61358;SDS011;47228;46.762;23.598;2022-07-01T07:13:28;25.80;;;11.70;;
61358;SDS011;47228;46.762;23.598;2022-07-01T07:15:57;20.40;;;11.60;;
61358;SDS011;47228;46.762;23.598;2022-07-01T07:18:25;23.90;;;11.80;;
61358;SDS011;47228;46.762;23.598;2022-07-01T07:20:53;21.20;;;11.40;;
61358;SDS011;47228;46.762;23.598;2022-07-01T07:23:27;20.60;;;11.00;;
61358;SDS011;47228;46.762;23.598;2022-07-01T07:25:55;18.80;;;11.40;;
61358;SDS011;47228;46.762;23.598;2022-07-01T07:28:24;18.70;;;11.60;;
61358;SDS011;47228;46.762;23.598;2022-07-01T07:30:52;19.40;;;11.50;;
61358;SDS011;47228;46.762;23.598;2022-07-01T07:33:20;17.70;;;10.90;;
61358;SDS011;47228;46.762;23.598;2022-07-01T07:35:48;15.90;;;10.40;;
61358;SDS011;47228;46.762;23.598;2022-07-01T07:38:16;22.10;;;11.40;;
61358;SDS011;47228;46.762;23.598;2022-07-01T07:40:44;22.70;;;10.80;;
61358;SDS011;47228;46.762;23.598;2022-07-01T07:43:12;19.20;;;10.50;;
61358;SDS011;47228;46.762;23.598;2022-07-01T07:45:41;21.20;;;10.90;;
61358;SDS011;47228;46.762;23.598;2022-07-01T07:48:09;22.70;;;11.20;;
61358;SDS011;47228;46.762;23.598;2022-07-01T07:50:37;19.60;;;11.20;;
61358;SDS011;47228;46.762;23.598;2022-07-01T07:53:05;20.70;;;10.80;;
61358;SDS011;47228;46.762;23.598;2022-07-01T07:55:34;25.70;;;10.90;;
61358;SDS011;47228;46.762;23.598;2022-07-01T07:58:04;17.60;;;10.40;;
61358;SDS011;47228;46.762;23.598;2022-07-01T08:00:33;20.30;;;9.60;;
61358;SDS011;47228;46.762;23.598;2022-07-01T08:03:06;19.70;;;10.50;;
61358;SDS011;47228;46.762;23.598;2022-07-01T08:05:35;18.50;;;9.80;;
61358;SDS011;47228;46.762;23.598;2022-07-01T08:08:03;19.20;;;10.30;;
61358;SDS011;47228;46.762;23.598;2022-07-01T08:10:31;18.50;;;8.80;;
61358;SDS011;47228;46.762;23.598;2022-07-01T08:13:00;14.60;;;8.70;;
61358;SDS011;47228;46.762;23.598;2022-07-01T08:15:32;16.70;;;8.90;;
61358;SDS011;47228;46.762;23.598;2022-07-01T08:18:00;16.20;;;9.00;;
61358;SDS011;47228;46.762;23.598;2022-07-01T08:20:29;15.90;;;8.20;;
61358;SDS011;47228;46.762;23.598;2022-07-01T08:22:57;19.90;;;9.70;;
61358;SDS011;47228;46.762;23.598;2022-07-01T08:25:26;14.10;;;8.80;;
61358;SDS011;47228;46.762;23.598;2022-07-01T08:28:02;14.40;;;8.90;;
61358;SDS011;47228;46.762;23.598;2022-07-01T08:30:31;16.10;;;8.40;;
61358;SDS011;47228;46.762;23.598;2022-07-01T08:32:59;16.40;;;8.60;;
61358;SDS011;47228;46.762;23.598;2022-07-01T08:35:29;13.80;;;8.30;;
61358;SDS011;47228;46.762;23.598;2022-07-01T08:37:57;18.70;;;7.90;;
61358;SDS011;47228;46.762;23.598;2022-07-01T08:40:26;15.90;;;7.50;;
61358;SDS011;47228;46.762;23.598;2022-07-01T08:42:59;15.30;;;7.10;;
61358;SDS011;47228;46.762;23.598;2022-07-01T08:47:59;15.50;;;8.10;;
61358;SDS011;47228;46.762;23.598;2022-07-01T08:50:30;14.10;;;7.90;;
61358;SDS011;47228;46.762;23.598;2022-07-01T08:53:01;15.30;;;7.60;;
61358;SDS011;47228;46.762;23.598;2022-07-01T08:55:29;14.10;;;8.20;;
61358;SDS011;47228;46.762;23.598;2022-07-01T08:57:58;14.70;;;8.30;;
61358;SDS011;47228;46.762;23.598;2022-07-01T09:00:32;15.10;;;7.90;;
61358;SDS011;47228;46.762;23.598;2022-07-01T09:03:02;15.50;;;7.90;;
61358;SDS011;47228;46.762;23.598;2022-07-01T09:05:31;13.80;;;7.90;;
61358;SDS011;47228;46.762;23.598;2022-07-01T09:08:03;16.20;;;8.30;;
61358;SDS011;47228;46.762;23.598;2022-07-01T09:10:33;13.40;;;7.90;;
61358;SDS011;47228;46.762;23.598;2022-07-01T09:13:09;12.00;;;7.40;;
61358;SDS011;47228;46.762;23.598;2022-07-01T09:15:39;13.00;;;7.20;;
61358;SDS011;47228;46.762;23.598;2022-07-01T09:20:45;14.30;;;7.80;;
61358;SDS011;47228;46.762;23.598;2022-07-01T09:23:18;11.60;;;7.10;;
61358;SDS011;47228;46.762;23.598;2022-07-01T09:25:47;13.30;;;7.70;;
61358;SDS011;47228;46.762;23.598;2022-07-01T09:28:25;17.20;;;7.20;;
61358;SDS011;47228;46.762;23.598;2022-07-01T09:30:56;13.50;;;7.50;;
61358;SDS011;47228;46.762;23.598;2022-07-01T09:33:26;14.00;;;7.60;;
61358;SDS011;47228;46.762;23.598;2022-07-01T09:35:57;12.70;;;8.00;;
61358;SDS011;47228;46.762;23.598;2022-07-01T09:38:27;13.60;;;7.30;;
61358;SDS011;47228;46.762;23.598;2022-07-01T09:41:01;14.50;;;8.60;;
61358;SDS011;47228;46.762;23.598;2022-07-01T09:43:34;16.20;;;8.00;;
61358;SDS011;47228;46.762;23.598;2022-07-01T09:46:07;10.20;;;7.50;;
61358;SDS011;47228;46.762;23.598;2022-07-01T09:51:07;14.90;;;7.70;;
61358;SDS011;47228;46.762;23.598;2022-07-01T09:53:42;16.60;;;7.80;;
61358;SDS011;47228;46.762;23.598;2022-07-01T09:56:11;13.10;;;7.40;;
61358;SDS011;47228;46.762;23.598;2022-07-01T09:58:39;12.80;;;7.60;;
61358;SDS011;47228;46.762;23.598;2022-07-01T10:01:11;12.50;;;7.60;;
61358;SDS011;47228;46.762;23.598;2022-07-01T10:03:42;13.40;;;7.40;;
61358;SDS011;47228;46.762;23.598;2022-07-01T10:14:35;11.10;;;6.80;;
61358;SDS011;47228;46.762;23.598;2022-07-01T10:17:08;11.00;;;7.00;;
61358;SDS011;47228;46.762;23.598;2022-07-01T10:19:36;12.90;;;6.90;;
61358;SDS011;47228;46.762;23.598;2022-07-01T10:24:52;11.90;;;7.20;;
61358;SDS011;47228;46.762;23.598;2022-07-01T10:27:21;12.70;;;7.10;;
61358;SDS011;47228;46.762;23.598;2022-07-01T10:32:48;11.60;;;7.30;;
61358;SDS011;47228;46.762;23.598;2022-07-01T10:35:35;11.70;;;6.60;;
61358;SDS011;47228;46.762;23.598;2022-07-01T10:38:05;11.60;;;7.00;;
61358;SDS011;47228;46.762;23.598;2022-07-01T10:40:39;10.90;;;6.70;;
61358;SDS011;47228;46.762;23.598;2022-07-01T10:43:09;11.00;;;6.60;;
61358;SDS011;47228;46.762;23.598;2022-07-01T10:45:55;8.60;;;6.00;;
61358;SDS011;47228;46.762;23.598;2022-07-01T10:48:24;17.40;;;6.40;;
61358;SDS011;47228;46.762;23.598;2022-07-01T10:50:53;10.70;;;6.40;;
61358;SDS011;47228;46.762;23.598;2022-07-01T10:53:21;16.00;;;6.60;;
61358;SDS011;47228;46.762;23.598;2022-07-01T10:55:50;8.70;;;6.00;;
61358;SDS011;47228;46.762;23.598;2022-07-01T10:58:37;11.00;;;5.90;;
61358;SDS011;47228;46.762;23.598;2022-07-01T11:01:06;8.80;;;5.80;;
61358;SDS011;47228;46.762;23.598;2022-07-01T11:03:35;8.40;;;5.90;;
61358;SDS011;47228;46.762;23.598;2022-07-01T11:06:07;11.90;;;6.10;;
61358;SDS011;47228;46.762;23.598;2022-07-01T11:08:36;11.10;;;6.40;;
61358;SDS011;47228;46.762;23.598;2022-07-01T11:11:05;10.50;;;5.80;;
61358;SDS011;47228;46.762;23.598;2022-07-01T11:13:34;8.20;;;5.30;;
61358;SDS011;47228;46.762;23.598;2022-07-01T11:16:03;10.10;;;5.70;;
61358;SDS011;47228;46.762;23.598;2022-07-01T11:18:32;7.40;;;4.70;;
61358;SDS011;47228;46.762;23.598;2022-07-01T11:21:04;8.50;;;4.60;;
61358;SDS011;47228;46.762;23.598;2022-07-01T11:23:34;11.00;;;5.00;;
61358;SDS011;47228;46.762;23.598;2022-07-01T11:26:19;10.80;;;5.40;;
61358;SDS011;47228;46.762;23.598;2022-07-01T11:28:48;8.60;;;5.30;;
61358;SDS011;47228;46.762;23.598;2022-07-01T11:31:26;8.10;;;4.70;;
61358;SDS011;47228;46.762;23.598;2022-07-01T11:33:55;7.10;;;4.70;;
61358;SDS011;47228;46.762;23.598;2022-07-01T11:36:23;9.70;;;5.10;;
61358;SDS011;47228;46.762;23.598;2022-07-01T11:39:10;7.50;;;5.00;;
61358;SDS011;47228;46.762;23.598;2022-07-01T11:41:54;8.30;;;5.10;;
61358;SDS011;47228;46.762;23.598;2022-07-01T11:44:39;8.80;;;4.90;;
61358;SDS011;47228;46.762;23.598;2022-07-01T11:47:10;5.70;;;4.70;;
61358;SDS011;47228;46.762;23.598;2022-07-01T11:49:44;7.50;;;4.70;;
61358;SDS011;47228;46.762;23.598;2022-07-01T11:52:17;6.80;;;4.60;;
61358;SDS011;47228;46.762;23.598;2022-07-01T11:54:50;9.60;;;5.10;;
61358;SDS011;47228;46.762;23.598;2022-07-01T11:57:21;7.10;;;4.70;;
61358;SDS011;47228;46.762;23.598;2022-07-01T11:59:52;6.20;;;4.50;;
61358;SDS011;47228;46.762;23.598;2022-07-01T12:02:22;6.70;;;4.50;;
61358;SDS011;47228;46.762;23.598;2022-07-01T12:04:51;7.10;;;4.50;;
61358;SDS011;47228;46.762;23.598;2022-07-01T12:07:20;5.80;;;4.20;;
61358;SDS011;47228;46.762;23.598;2022-07-01T12:09:49;8.00;;;4.50;;
61358;SDS011;47228;46.762;23.598;2022-07-01T12:12:18;6.90;;;4.40;;
61358;SDS011;47228;46.762;23.598;2022-07-01T12:14:53;13.20;;;4.80;;
61358;SDS011;47228;46.762;23.598;2022-07-01T12:17:23;9.90;;;4.50;;
61358;SDS011;47228;46.762;23.598;2022-07-01T12:19:53;7.60;;;4.50;;
61358;SDS011;47228;46.762;23.598;2022-07-01T12:22:22;6.10;;;4.20;;
61358;SDS011;47228;46.762;23.598;2022-07-01T12:25:03;4.90;;;4.20;;
61358;SDS011;47228;46.762;23.598;2022-07-01T12:27:34;8.60;;;4.60;;
61358;SDS011;47228;46.762;23.598;2022-07-01T12:30:08;9.80;;;4.30;;
61358;SDS011;47228;46.762;23.598;2022-07-01T12:35:08;6.30;;;4.60;;
61358;SDS011;47228;46.762;23.598;2022-07-01T12:37:56;10.70;;;4.70;;
61358;SDS011;47228;46.762;23.598;2022-07-01T12:40:26;5.60;;;4.50;;
61358;SDS011;47228;46.762;23.598;2022-07-01T12:42:57;8.00;;;4.70;;
61358;SDS011;47228;46.762;23.598;2022-07-01T12:45:28;11.00;;;4.30;;
61358;SDS011;47228;46.762;23.598;2022-07-01T12:47:56;5.70;;;4.40;;
61358;SDS011;47228;46.762;23.598;2022-07-01T12:50:25;6.60;;;4.50;;
61358;SDS011;47228;46.762;23.598;2022-07-01T12:53:02;6.10;;;4.60;;
61358;SDS011;47228;46.762;23.598;2022-07-01T12:55:33;8.20;;;4.20;;
61358;SDS011;47228;46.762;23.598;2022-07-01T12:58:06;8.50;;;4.50;;
61358;SDS011;47228;46.762;23.598;2022-07-01T13:00:37;7.90;;;4.50;;
61358;SDS011;47228;46.762;23.598;2022-07-01T13:03:07;8.90;;;4.30;;
61358;SDS011;47228;46.762;23.598;2022-07-01T13:05:37;6.40;;;4.20;;
61358;SDS011;47228;46.762;23.598;2022-07-01T13:08:07;8.50;;;4.40;;
61358;SDS011;47228;46.762;23.598;2022-07-01T13:10:37;5.90;;;4.50;;
61358;SDS011;47228;46.762;23.598;2022-07-01T13:13:05;6.70;;;4.50;;
61358;SDS011;47228;46.762;23.598;2022-07-01T13:15:34;6.20;;;4.10;;
61358;SDS011;47228;46.762;23.598;2022-07-01T13:18:03;5.70;;;4.00;;
61358;SDS011;47228;46.762;23.598;2022-07-01T13:20:32;8.00;;;4.30;;
61358;SDS011;47228;46.762;23.598;2022-07-01T13:23:01;7.60;;;3.90;;
61358;SDS011;47228;46.762;23.598;2022-07-01T13:25:29;10.70;;;4.20;;
61358;SDS011;47228;46.762;23.598;2022-07-01T13:27:57;7.10;;;4.10;;
61358;SDS011;47228;46.762;23.598;2022-07-01T13:30:26;6.90;;;3.90;;
61358;SDS011;47228;46.762;23.598;2022-07-01T13:32:54;6.60;;;4.10;;
61358;SDS011;47228;46.762;23.598;2022-07-01T13:35:22;7.50;;;4.00;;
61358;SDS011;47228;46.762;23.598;2022-07-01T13:37:51;9.80;;;4.10;;
61358;SDS011;47228;46.762;23.598;2022-07-01T13:40:20;8.90;;;4.70;;
61358;SDS011;47228;46.762;23.598;2022-07-01T13:42:50;11.80;;;4.60;;
61358;SDS011;47228;46.762;23.598;2022-07-01T13:45:18;11.30;;;4.60;;
61358;SDS011;47228;46.762;23.598;2022-07-01T13:47:47;7.90;;;4.50;;
61358;SDS011;47228;46.762;23.598;2022-07-01T13:50:15;21.20;;;5.10;;
61358;SDS011;47228;46.762;23.598;2022-07-01T13:52:47;8.20;;;4.50;;
61358;SDS011;47228;46.762;23.598;2022-07-01T13:55:17;8.40;;;4.60;;
61358;SDS011;47228;46.762;23.598;2022-07-01T13:57:46;8.30;;;4.20;;
61358;SDS011;47228;46.762;23.598;2022-07-01T14:00:15;6.00;;;4.00;;
61358;SDS011;47228;46.762;23.598;2022-07-01T14:02:43;7.40;;;4.20;;
61358;SDS011;47228;46.762;23.598;2022-07-01T14:05:12;10.00;;;4.40;;
61358;SDS011;47228;46.762;23.598;2022-07-01T14:07:40;8.60;;;4.00;;
61358;SDS011;47228;46.762;23.598;2022-07-01T14:10:09;7.80;;;5.10;;
61358;SDS011;47228;46.762;23.598;2022-07-01T14:12:37;12.60;;;5.50;;
61358;SDS011;47228;46.762;23.598;2022-07-01T14:15:06;8.00;;;5.40;;
61358;SDS011;47228;46.762;23.598;2022-07-01T14:17:34;8.30;;;4.90;;
61358;SDS011;47228;46.762;23.598;2022-07-01T14:20:03;8.40;;;5.50;;
61358;SDS011;47228;46.762;23.598;2022-07-01T14:22:31;10.20;;;5.30;;
61358;SDS011;47228;46.762;23.598;2022-07-01T14:24:59;11.20;;;5.40;;
61358;SDS011;47228;46.762;23.598;2022-07-01T14:27:27;10.30;;;5.30;;
61358;SDS011;47228;46.762;23.598;2022-07-01T14:29:56;12.10;;;5.40;;
61358;SDS011;47228;46.762;23.598;2022-07-01T14:32:24;16.00;;;5.60;;
61358;SDS011;47228;46.762;23.598;2022-07-01T14:34:57;12.00;;;5.30;;
61358;SDS011;47228;46.762;23.598;2022-07-01T14:37:25;11.00;;;5.60;;
61358;SDS011;47228;46.762;23.598;2022-07-01T14:39:53;9.30;;;5.10;;
61358;SDS011;47228;46.762;23.598;2022-07-01T14:42:24;10.80;;;5.20;;
61358;SDS011;47228;46.762;23.598;2022-07-01T14:44:54;14.30;;;5.40;;
61358;SDS011;47228;46.762;23.598;2022-07-01T14:47:23;10.30;;;5.30;;
61358;SDS011;47228;46.762;23.598;2022-07-01T14:49:52;12.00;;;5.90;;
61358;SDS011;47228;46.762;23.598;2022-07-01T14:52:22;12.40;;;5.50;;
61358;SDS011;47228;46.762;23.598;2022-07-01T14:54:52;11.30;;;4.90;;
61358;SDS011;47228;46.762;23.598;2022-07-01T14:57:21;10.90;;;5.40;;
61358;SDS011;47228;46.762;23.598;2022-07-01T14:59:49;8.60;;;4.90;;